East Rodman, New York
Current Conditions -  °F | °C
As of 11:56 AM on Saturday 25 Oct 2014 (Local Time) from KART Reporting Station
Few Clouds Few Clouds  
Wind Chill: 58°   Ceiling: Unl
Heat Index: 58°   Visibility: 8mi
Dew Point: 47°   Wind: 10mph
Humidity: 67%   Direction: 210°SSW
Pressure: 29.67"   Gusts: 22mph
Location:  43.8495°N, 75.863°W
Report Text: KART 251556Z AUTO 21009G19KT 8SM FEW015 14/08 A2967 RMK AO2 SLP045 T01440083
Loading
Personal Weather Stations






























Interactive Weather Map
Tropical Storm Tracking
New forecast layout! Learn more

10-Day Weather Forecast

Advertisements
Track Severe Weather on mobile